sensor_id;sensor_type;location;lat;lon;timestamp;temperature;humidity
19755;DHT22;10036;47.812;9.274;2023-05-10T00:00:36;14.00;99.90
19755;DHT22;10036;47.812;9.274;2023-05-10T00:03:03;14.10;99.90
19755;DHT22;10036;47.812;9.274;2023-05-10T00:05:30;14.00;99.90
19755;DHT22;10036;47.812;9.274;2023-05-10T00:07:59;13.90;99.90
19755;DHT22;10036;47.812;9.274;2023-05-10T00:10:25;13.90;99.90
19755;DHT22;10036;47.812;9.274;2023-05-10T00:12:52;13.90;99.90
19755;DHT22;10036;47.812;9.274;2023-05-10T00:15:19;13.80;99.90
19755;DHT22;10036;47.812;9.274;2023-05-10T00:17:46;13.60;99.90
19755;DHT22;10036;47.812;9.274;2023-05-10T00:20:13;13.60;99.90
19755;DHT22;10036;47.812;9.274;2023-05-10T00:22:40;13.60;99.90
19755;DHT22;10036;47.812;9.274;2023-05-10T00:25:09;13.60;99.90
19755;DHT22;10036;47.812;9.274;2023-05-10T00:27:36;13.50;99.90
19755;DHT22;10036;47.812;9.274;2023-05-10T00:30:04;13.50;99.90
19755;DHT22;10036;47.812;9.274;2023-05-10T00:32:31;13.50;99.90
19755;DHT22;10036;47.812;9.274;2023-05-10T00:34:58;13.50;99.90
19755;DHT22;10036;47.812;9.274;2023-05-10T00:37:25;13.50;99.90
19755;DHT22;10036;47.812;9.274;2023-05-10T00:39:52;13.30;99.90
19755;DHT22;10036;47.812;9.274;2023-05-10T00:42:20;13.20;99.90
19755;DHT22;10036;47.812;9.274;2023-05-10T00:44:47;13.20;99.90
19755;DHT22;10036;47.812;9.274;2023-05-10T00:47:15;13.30;99.90
19755;DHT22;10036;47.812;9.274;2023-05-10T00:49:42;13.30;99.90
19755;DHT22;10036;47.812;9.274;2023-05-10T00:52:10;13.30;99.90
19755;DHT22;10036;47.812;9.274;2023-05-10T00:54:37;13.20;99.90
19755;DHT22;10036;47.812;9.274;2023-05-10T00:57:04;13.20;99.90
19755;DHT22;10036;47.812;9.274;2023-05-10T00:59:32;13.20;99.90
19755;DHT22;10036;47.812;9.274;2023-05-10T01:01:59;13.30;99.90
19755;DHT22;10036;47.812;9.274;2023-05-10T01:04:26;13.10;99.90
19755;DHT22;10036;47.812;9.274;2023-05-10T01:06:54;13.10;99.90
19755;DHT22;10036;47.812;9.274;2023-05-10T01:09:21;13.00;99.90
19755;DHT22;10036;47.812;9.274;2023-05-10T01:11:48;13.10;99.90
19755;DHT22;10036;47.812;9.274;2023-05-10T01:14:18;13.00;99.90
19755;DHT22;10036;47.812;9.274;2023-05-10T01:16:47;13.00;99.90
19755;DHT22;10036;47.812;9.274;2023-05-10T01:19:19;13.00;99.90
19755;DHT22;10036;47.812;9.274;2023-05-10T01:21:50;13.00;99.90
19755;DHT22;10036;47.812;9.274;2023-05-10T01:24:41;13.00;99.90
19755;DHT22;10036;47.812;9.274;2023-05-10T01:27:24;12.90;99.90
19755;DHT22;10036;47.812;9.274;2023-05-10T01:30:14;12.90;99.90
19755;DHT22;10036;47.812;9.274;2023-05-10T01:32:55;13.00;99.90
19755;DHT22;10036;47.812;9.274;2023-05-10T01:35:31;12.90;99.90
19755;DHT22;10036;47.812;9.274;2023-05-10T01:38:04;12.90;99.90
19755;DHT22;10036;47.812;9.274;2023-05-10T01:40:39;13.00;99.90
19755;DHT22;10036;47.812;9.274;2023-05-10T01:43:17;13.00;99.90
19755;DHT22;10036;47.812;9.274;2023-05-10T01:45:50;12.90;99.90
19755;DHT22;10036;47.812;9.274;2023-05-10T01:48:23;12.90;99.90
19755;DHT22;10036;47.812;9.274;2023-05-10T01:50:54;13.00;99.90
19755;DHT22;10036;47.812;9.274;2023-05-10T01:53:22;13.00;99.90
19755;DHT22;10036;47.812;9.274;2023-05-10T01:55:52;12.90;99.90
19755;DHT22;10036;47.812;9.274;2023-05-10T01:58:25;12.90;99.90
19755;DHT22;10036;47.812;9.274;2023-05-10T02:00:54;12.90;99.90
19755;DHT22;10036;47.812;9.274;2023-05-10T02:03:24;12.90;99.90
19755;DHT22;10036;47.812;9.274;2023-05-10T02:05:52;12.90;99.90
19755;DHT22;10036;47.812;9.274;2023-05-10T02:08:21;12.90;99.90
19755;DHT22;10036;47.812;9.274;2023-05-10T02:10:51;12.90;99.90
19755;DHT22;10036;47.812;9.274;2023-05-10T02:13:19;12.90;99.90
19755;DHT22;10036;47.812;9.274;2023-05-10T02:15:47;12.90;99.90
19755;DHT22;10036;47.812;9.274;2023-05-10T02:18:14;12.80;99.90
19755;DHT22;10036;47.812;9.274;2023-05-10T02:20:45;12.80;99.90
19755;DHT22;10036;47.812;9.274;2023-05-10T02:23:13;12.90;99.90
19755;DHT22;10036;47.812;9.274;2023-05-10T02:25:41;12.90;99.90
19755;DHT22;10036;47.812;9.274;2023-05-10T02:28:10;12.90;99.90
19755;DHT22;10036;47.812;9.274;2023-05-10T02:30:39;12.90;99.90
19755;DHT22;10036;47.812;9.274;2023-05-10T02:33:06;12.90;99.90
19755;DHT22;10036;47.812;9.274;2023-05-10T02:35:34;12.80;99.90
19755;DHT22;10036;47.812;9.274;2023-05-10T02:38:04;12.90;99.90
19755;DHT22;10036;47.812;9.274;2023-05-10T02:40:32;12.90;99.90
19755;DHT22;10036;47.812;9.274;2023-05-10T02:43:01;12.90;99.90
19755;DHT22;10036;47.812;9.274;2023-05-10T02:45:31;12.90;99.90
19755;DHT22;10036;47.812;9.274;2023-05-10T02:47:58;12.90;99.90
19755;DHT22;10036;47.812;9.274;2023-05-10T02:50:27;12.90;99.90
19755;DHT22;10036;47.812;9.274;2023-05-10T02:52:58;12.90;99.90
19755;DHT22;10036;47.812;9.274;2023-05-10T02:55:32;13.00;99.90
19755;DHT22;10036;47.812;9.274;2023-05-10T02:58:02;12.90;99.90
19755;DHT22;10036;47.812;9.274;2023-05-10T03:00:29;12.90;99.90
19755;DHT22;10036;47.812;9.274;2023-05-10T03:02:56;12.90;99.90
19755;DHT22;10036;47.812;9.274;2023-05-10T03:05:23;12.80;99.90
19755;DHT22;10036;47.812;9.274;2023-05-10T03:07:50;12.80;99.90
19755;DHT22;10036;47.812;9.274;2023-05-10T03:10:18;12.70;99.90
19755;DHT22;10036;47.812;9.274;2023-05-10T03:13:01;12.70;99.90
19755;DHT22;10036;47.812;9.274;2023-05-10T03:15:37;12.80;99.90
19755;DHT22;10036;47.812;9.274;2023-05-10T03:18:12;12.80;99.90
19755;DHT22;10036;47.812;9.274;2023-05-10T03:20:42;12.80;99.90
19755;DHT22;10036;47.812;9.274;2023-05-10T03:23:13;12.80;99.90
19755;DHT22;10036;47.812;9.274;2023-05-10T03:25:44;12.70;99.90
19755;DHT22;10036;47.812;9.274;2023-05-10T03:28:14;12.60;99.90
19755;DHT22;10036;47.812;9.274;2023-05-10T03:30:43;12.70;99.90
19755;DHT22;10036;47.812;9.274;2023-05-10T03:33:10;12.60;99.90
19755;DHT22;10036;47.812;9.274;2023-05-10T03:35:39;12.60;99.90
19755;DHT22;10036;47.812;9.274;2023-05-10T03:38:06;12.60;99.90
19755;DHT22;10036;47.812;9.274;2023-05-10T03:40:33;12.70;99.90
19755;DHT22;10036;47.812;9.274;2023-05-10T03:43:00;12.60;99.90
19755;DHT22;10036;47.812;9.274;2023-05-10T03:45:28;12.60;99.90
19755;DHT22;10036;47.812;9.274;2023-05-10T03:47:56;12.60;99.90
19755;DHT22;10036;47.812;9.274;2023-05-10T03:50:24;12.60;99.90
19755;DHT22;10036;47.812;9.274;2023-05-10T03:52:52;12.60;99.90
19755;DHT22;10036;47.812;9.274;2023-05-10T03:55:19;12.60;99.90
19755;DHT22;10036;47.812;9.274;2023-05-10T03:57:46;12.50;99.90
19755;DHT22;10036;47.812;9.274;2023-05-10T04:00:15;12.50;99.90
19755;DHT22;10036;47.812;9.274;2023-05-10T04:02:43;12.50;99.90
19755;DHT22;10036;47.812;9.274;2023-05-10T04:05:10;12.50;99.90
19755;DHT22;10036;47.812;9.274;2023-05-10T04:07:38;12.60;99.90
19755;DHT22;10036;47.812;9.274;2023-05-10T04:10:05;12.50;99.90
19755;DHT22;10036;47.812;9.274;2023-05-10T04:12:32;12.50;99.90
19755;DHT22;10036;47.812;9.274;2023-05-10T04:14:59;12.40;99.90
19755;DHT22;10036;47.812;9.274;2023-05-10T04:17:26;12.50;99.90
19755;DHT22;10036;47.812;9.274;2023-05-10T04:19:55;12.60;99.90
19755;DHT22;10036;47.812;9.274;2023-05-10T04:22:22;12.60;99.90
19755;DHT22;10036;47.812;9.274;2023-05-10T04:24:49;12.50;99.90
19755;DHT22;10036;47.812;9.274;2023-05-10T04:27:16;12.50;99.90
19755;DHT22;10036;47.812;9.274;2023-05-10T04:29:43;12.60;99.90
19755;DHT22;10036;47.812;9.274;2023-05-10T04:32:10;12.60;99.90
19755;DHT22;10036;47.812;9.274;2023-05-10T04:34:37;12.60;99.90
19755;DHT22;10036;47.812;9.274;2023-05-10T04:37:05;12.60;99.90
19755;DHT22;10036;47.812;9.274;2023-05-10T04:39:32;12.60;99.90
19755;DHT22;10036;47.812;9.274;2023-05-10T04:42:00;12.60;99.90
19755;DHT22;10036;47.812;9.274;2023-05-10T04:44:28;12.60;99.90
19755;DHT22;10036;47.812;9.274;2023-05-10T04:46:55;12.60;99.90
19755;DHT22;10036;47.812;9.274;2023-05-10T04:49:22;12.80;99.90
19755;DHT22;10036;47.812;9.274;2023-05-10T04:51:48;12.80;99.90
19755;DHT22;10036;47.812;9.274;2023-05-10T04:54:17;12.80;99.90
19755;DHT22;10036;47.812;9.274;2023-05-10T04:56:44;12.70;99.90
19755;DHT22;10036;47.812;9.274;2023-05-10T04:59:10;12.70;99.90
19755;DHT22;10036;47.812;9.274;2023-05-10T05:01:37;12.70;99.90
19755;DHT22;10036;47.812;9.274;2023-05-10T05:04:04;12.70;99.90
19755;DHT22;10036;47.812;9.274;2023-05-10T05:06:32;12.80;99.90
19755;DHT22;10036;47.812;9.274;2023-05-10T05:08:59;12.60;99.90
19755;DHT22;10036;47.812;9.274;2023-05-10T05:11:27;12.50;99.90
19755;DHT22;10036;47.812;9.274;2023-05-10T05:13:54;12.50;99.90
19755;DHT22;10036;47.812;9.274;2023-05-10T05:16:21;12.60;99.90
19755;DHT22;10036;47.812;9.274;2023-05-10T05:18:47;12.50;99.90
19755;DHT22;10036;47.812;9.274;2023-05-10T05:21:15;12.60;99.90
19755;DHT22;10036;47.812;9.274;2023-05-10T05:23:42;12.70;99.90
19755;DHT22;10036;47.812;9.274;2023-05-10T05:26:09;12.60;99.90
19755;DHT22;10036;47.812;9.274;2023-05-10T05:28:38;12.70;99.90
19755;DHT22;10036;47.812;9.274;2023-05-10T05:31:05;12.70;99.90
19755;DHT22;10036;47.812;9.274;2023-05-10T05:33:32;12.70;99.90
19755;DHT22;10036;47.812;9.274;2023-05-10T05:36:00;12.70;99.90
19755;DHT22;10036;47.812;9.274;2023-05-10T05:38:27;12.80;99.90
19755;DHT22;10036;47.812;9.274;2023-05-10T05:40:54;12.90;99.90
19755;DHT22;10036;47.812;9.274;2023-05-10T05:43:21;12.90;99.90
19755;DHT22;10036;47.812;9.274;2023-05-10T05:45:49;13.00;99.90
19755;DHT22;10036;47.812;9.274;2023-05-10T05:48:18;12.90;99.90
19755;DHT22;10036;47.812;9.274;2023-05-10T05:50:45;12.80;99.90
19755;DHT22;10036;47.812;9.274;2023-05-10T05:53:12;12.90;99.90
19755;DHT22;10036;47.812;9.274;2023-05-10T05:55:39;12.80;99.90
19755;DHT22;10036;47.812;9.274;2023-05-10T05:58:06;12.90;99.90
19755;DHT22;10036;47.812;9.274;2023-05-10T06:00:33;12.90;99.90
19755;DHT22;10036;47.812;9.274;2023-05-10T06:03:01;13.00;99.90
19755;DHT22;10036;47.812;9.274;2023-05-10T06:05:28;13.00;99.90
19755;DHT22;10036;47.812;9.274;2023-05-10T06:07:55;13.00;99.90
19755;DHT22;10036;47.812;9.274;2023-05-10T06:10:22;13.00;99.90
19755;DHT22;10036;47.812;9.274;2023-05-10T06:12:50;13.00;99.90
19755;DHT22;10036;47.812;9.274;2023-05-10T06:15:18;12.90;99.90
19755;DHT22;10036;47.812;9.274;2023-05-10T06:17:45;13.00;99.90
19755;DHT22;10036;47.812;9.274;2023-05-10T06:20:14;13.00;99.90
19755;DHT22;10036;47.812;9.274;2023-05-10T06:22:41;13.00;99.90
19755;DHT22;10036;47.812;9.274;2023-05-10T06:25:09;12.90;99.90
19755;DHT22;10036;47.812;9.274;2023-05-10T06:27:37;13.00;99.90
19755;DHT22;10036;47.812;9.274;2023-05-10T06:30:04;12.80;99.90
19755;DHT22;10036;47.812;9.274;2023-05-10T06:32:31;12.90;99.90
19755;DHT22;10036;47.812;9.274;2023-05-10T06:34:59;12.90;99.90
19755;DHT22;10036;47.812;9.274;2023-05-10T06:37:27;12.90;99.90
19755;DHT22;10036;47.812;9.274;2023-05-10T06:39:54;13.00;99.90
19755;DHT22;10036;47.812;9.274;2023-05-10T06:42:21;13.00;99.90
19755;DHT22;10036;47.812;9.274;2023-05-10T06:44:50;13.10;99.90
19755;DHT22;10036;47.812;9.274;2023-05-10T06:47:17;13.10;99.90
19755;DHT22;10036;47.812;9.274;2023-05-10T06:49:44;13.00;99.90
19755;DHT22;10036;47.812;9.274;2023-05-10T06:52:11;12.90;99.90
19755;DHT22;10036;47.812;9.274;2023-05-10T06:54:39;13.00;99.90
19755;DHT22;10036;47.812;9.274;2023-05-10T06:57:06;12.90;99.90
19755;DHT22;10036;47.812;9.274;2023-05-10T06:59:33;12.90;99.90
19755;DHT22;10036;47.812;9.274;2023-05-10T07:02:00;12.90;99.90
19755;DHT22;10036;47.812;9.274;2023-05-10T07:04:27;12.90;99.90
19755;DHT22;10036;47.812;9.274;2023-05-10T07:06:53;12.90;99.90
19755;DHT22;10036;47.812;9.274;2023-05-10T07:09:20;13.00;99.90
19755;DHT22;10036;47.812;9.274;2023-05-10T07:11:49;13.00;99.90
19755;DHT22;10036;47.812;9.274;2023-05-10T07:14:15;12.90;99.90
19755;DHT22;10036;47.812;9.274;2023-05-10T07:16:42;12.90;99.90
19755;DHT22;10036;47.812;9.274;2023-05-10T07:19:09;13.00;99.90
19755;DHT22;10036;47.812;9.274;2023-05-10T07:21:36;13.10;99.90
19755;DHT22;10036;47.812;9.274;2023-05-10T07:24:03;13.10;99.90
19755;DHT22;10036;47.812;9.274;2023-05-10T07:26:30;13.10;99.90
19755;DHT22;10036;47.812;9.274;2023-05-10T07:28:58;13.10;99.90
19755;DHT22;10036;47.812;9.274;2023-05-10T07:31:25;13.20;99.90
19755;DHT22;10036;47.812;9.274;2023-05-10T07:33:52;13.20;99.90
19755;DHT22;10036;47.812;9.274;2023-05-10T07:36:19;13.20;99.90
19755;DHT22;10036;47.812;9.274;2023-05-10T07:38:46;13.20;99.90
19755;DHT22;10036;47.812;9.274;2023-05-10T07:41:13;13.10;99.90
19755;DHT22;10036;47.812;9.274;2023-05-10T07:43:40;13.10;99.90
19755;DHT22;10036;47.812;9.274;2023-05-10T07:46:08;13.30;99.90
19755;DHT22;10036;47.812;9.274;2023-05-10T07:48:36;13.40;99.90
19755;DHT22;10036;47.812;9.274;2023-05-10T07:51:03;13.30;99.90
19755;DHT22;10036;47.812;9.274;2023-05-10T07:53:32;13.50;99.90
19755;DHT22;10036;47.812;9.274;2023-05-10T07:55:59;13.60;99.90
19755;DHT22;10036;47.812;9.274;2023-05-10T07:58:26;13.60;99.90
19755;DHT22;10036;47.812;9.274;2023-05-10T08:00:55;13.50;99.90
19755;DHT22;10036;47.812;9.274;2023-05-10T08:03:24;13.50;99.90
19755;DHT22;10036;47.812;9.274;2023-05-10T08:05:51;13.60;99.90
19755;DHT22;10036;47.812;9.274;2023-05-10T08:08:18;13.80;99.90
19755;DHT22;10036;47.812;9.274;2023-05-10T08:10:47;13.80;99.90
19755;DHT22;10036;47.812;9.274;2023-05-10T08:13:14;13.80;99.90
19755;DHT22;10036;47.812;9.274;2023-05-10T08:15:40;13.80;99.90
19755;DHT22;10036;47.812;9.274;2023-05-10T08:18:07;13.60;99.90
19755;DHT22;10036;47.812;9.274;2023-05-10T08:20:35;13.70;99.90
19755;DHT22;10036;47.812;9.274;2023-05-10T08:23:02;13.60;99.90
19755;DHT22;10036;47.812;9.274;2023-05-10T08:25:29;13.60;99.90
19755;DHT22;10036;47.812;9.274;2023-05-10T08:27:56;13.70;99.90
19755;DHT22;10036;47.812;9.274;2023-05-10T08:30:23;13.80;99.90
19755;DHT22;10036;47.812;9.274;2023-05-10T08:32:50;13.80;99.90
19755;DHT22;10036;47.812;9.274;2023-05-10T08:35:17;13.80;99.90
19755;DHT22;10036;47.812;9.274;2023-05-10T08:37:45;13.90;99.90
19755;DHT22;10036;47.812;9.274;2023-05-10T08:40:12;13.70;99.90
19755;DHT22;10036;47.812;9.274;2023-05-10T08:42:44;13.70;99.90
19755;DHT22;10036;47.812;9.274;2023-05-10T08:45:15;13.70;99.90
19755;DHT22;10036;47.812;9.274;2023-05-10T08:47:43;13.70;99.90
19755;DHT22;10036;47.812;9.274;2023-05-10T08:50:10;13.80;99.90
19755;DHT22;10036;47.812;9.274;2023-05-10T08:52:38;14.00;99.90
19755;DHT22;10036;47.812;9.274;2023-05-10T08:55:09;14.00;99.90
19755;DHT22;10036;47.812;9.274;2023-05-10T08:57:36;14.10;99.90
19755;DHT22;10036;47.812;9.274;2023-05-10T09:00:04;13.90;99.90
19755;DHT22;10036;47.812;9.274;2023-05-10T09:02:31;13.60;99.90
19755;DHT22;10036;47.812;9.274;2023-05-10T09:04:58;13.60;99.90
19755;DHT22;10036;47.812;9.274;2023-05-10T09:07:25;13.50;99.90
19755;DHT22;10036;47.812;9.274;2023-05-10T09:09:53;13.50;99.90
19755;DHT22;10036;47.812;9.274;2023-05-10T09:12:22;13.70;99.90
19755;DHT22;10036;47.812;9.274;2023-05-10T09:14:50;13.80;99.90
19755;DHT22;10036;47.812;9.274;2023-05-10T09:17:17;13.80;99.90
19755;DHT22;10036;47.812;9.274;2023-05-10T09:19:45;14.00;99.90
19755;DHT22;10036;47.812;9.274;2023-05-10T09:22:12;14.30;99.90
19755;DHT22;10036;47.812;9.274;2023-05-10T09:24:39;14.20;99.90
19755;DHT22;10036;47.812;9.274;2023-05-10T09:27:10;14.10;99.90
19755;DHT22;10036;47.812;9.274;2023-05-10T09:29:42;14.30;99.90
19755;DHT22;10036;47.812;9.274;2023-05-10T09:32:09;14.50;99.90
19755;DHT22;10036;47.812;9.274;2023-05-10T09:34:36;14.80;99.90
19755;DHT22;10036;47.812;9.274;2023-05-10T09:37:05;14.70;99.90
19755;DHT22;10036;47.812;9.274;2023-05-10T09:39:34;14.80;99.90
19755;DHT22;10036;47.812;9.274;2023-05-10T09:42:03;14.70;99.90
19755;DHT22;10036;47.812;9.274;2023-05-10T09:44:31;14.40;99.90
19755;DHT22;10036;47.812;9.274;2023-05-10T09:46:59;14.30;99.90
19755;DHT22;10036;47.812;9.274;2023-05-10T09:49:26;14.30;99.90
19755;DHT22;10036;47.812;9.274;2023-05-10T09:52:01;14.40;99.90
19755;DHT22;10036;47.812;9.274;2023-05-10T09:54:29;14.40;99.90
19755;DHT22;10036;47.812;9.274;2023-05-10T09:56:56;14.60;99.90
19755;DHT22;10036;47.812;9.274;2023-05-10T09:59:25;14.60;99.90
19755;DHT22;10036;47.812;9.274;2023-05-10T10:01:53;14.60;99.90
19755;DHT22;10036;47.812;9.274;2023-05-10T10:04:21;14.70;99.90
19755;DHT22;10036;47.812;9.274;2023-05-10T10:06:59;14.80;99.90
19755;DHT22;10036;47.812;9.274;2023-05-10T10:09:27;15.00;99.90
19755;DHT22;10036;47.812;9.274;2023-05-10T10:11:54;15.20;99.90
19755;DHT22;10036;47.812;9.274;2023-05-10T10:14:22;15.10;99.90
19755;DHT22;10036;47.812;9.274;2023-05-10T10:16:49;15.50;99.90
19755;DHT22;10036;47.812;9.274;2023-05-10T10:19:17;15.50;99.90
19755;DHT22;10036;47.812;9.274;2023-05-10T10:21:45;15.40;99.90
19755;DHT22;10036;47.812;9.274;2023-05-10T10:24:12;15.20;99.90
19755;DHT22;10036;47.812;9.274;2023-05-10T10:26:41;15.30;99.90
19755;DHT22;10036;47.812;9.274;2023-05-10T10:29:18;15.10;99.90
19755;DHT22;10036;47.812;9.274;2023-05-10T10:31:49;15.10;99.90
19755;DHT22;10036;47.812;9.274;2023-05-10T10:34:25;15.10;99.90
19755;DHT22;10036;47.812;9.274;2023-05-10T10:36:55;15.10;99.90
19755;DHT22;10036;47.812;9.274;2023-05-10T10:39:23;15.00;99.90
19755;DHT22;10036;47.812;9.274;2023-05-10T10:41:52;15.00;99.90
19755;DHT22;10036;47.812;9.274;2023-05-10T10:44:33;14.70;99.90
19755;DHT22;10036;47.812;9.274;2023-05-10T10:47:02;14.00;99.90
19755;DHT22;10036;47.812;9.274;2023-05-10T10:49:31;13.90;99.90
19755;DHT22;10036;47.812;9.274;2023-05-10T10:52:21;14.10;99.90
19755;DHT22;10036;47.812;9.274;2023-05-10T10:54:52;13.80;99.90
19755;DHT22;10036;47.812;9.274;2023-05-10T10:57:21;13.70;99.90
19755;DHT22;10036;47.812;9.274;2023-05-10T10:59:48;13.60;99.90
19755;DHT22;10036;47.812;9.274;2023-05-10T11:02:33;13.50;99.90
19755;DHT22;10036;47.812;9.274;2023-05-10T11:08:18;13.50;99.90
19755;DHT22;10036;47.812;9.274;2023-05-10T11:11:04;13.60;99.90
19755;DHT22;10036;47.812;9.274;2023-05-10T11:13:34;14.00;99.90
19755;DHT22;10036;47.812;9.274;2023-05-10T11:16:15;13.90;99.90
19755;DHT22;10036;47.812;9.274;2023-05-10T11:19:01;14.20;99.90
19755;DHT22;10036;47.812;9.274;2023-05-10T11:21:29;14.20;99.90
19755;DHT22;10036;47.812;9.274;2023-05-10T11:23:59;14.30;99.90
19755;DHT22;10036;47.812;9.274;2023-05-10T11:26:30;14.40;99.90
19755;DHT22;10036;47.812;9.274;2023-05-10T11:28:57;14.60;99.90
19755;DHT22;10036;47.812;9.274;2023-05-10T11:31:26;14.50;99.90
19755;DHT22;10036;47.812;9.274;2023-05-10T11:33:54;14.80;99.90
19755;DHT22;10036;47.812;9.274;2023-05-10T11:36:23;15.10;99.90
19755;DHT22;10036;47.812;9.274;2023-05-10T11:38:51;15.40;99.90
19755;DHT22;10036;47.812;9.274;2023-05-10T11:41:19;15.60;99.90
19755;DHT22;10036;47.812;9.274;2023-05-10T11:43:49;15.50;99.90
19755;DHT22;10036;47.812;9.274;2023-05-10T11:46:18;15.30;99.90
19755;DHT22;10036;47.812;9.274;2023-05-10T11:48:46;15.40;99.90
19755;DHT22;10036;47.812;9.274;2023-05-10T11:51:13;15.10;99.90
19755;DHT22;10036;47.812;9.274;2023-05-10T11:53:40;15.40;99.90
19755;DHT22;10036;47.812;9.274;2023-05-10T11:56:08;15.80;99.90
19755;DHT22;10036;47.812;9.274;2023-05-10T11:58:38;16.20;99.90
19755;DHT22;10036;47.812;9.274;2023-05-10T12:01:07;16.20;99.90
19755;DHT22;10036;47.812;9.274;2023-05-10T12:03:34;16.20;99.90
19755;DHT22;10036;47.812;9.274;2023-05-10T12:06:02;16.00;99.90
19755;DHT22;10036;47.812;9.274;2023-05-10T12:08:30;15.90;99.90
19755;DHT22;10036;47.812;9.274;2023-05-10T12:11:05;16.10;99.90
19755;DHT22;10036;47.812;9.274;2023-05-10T12:13:32;15.90;99.90
19755;DHT22;10036;47.812;9.274;2023-05-10T12:16:12;15.80;99.90
19755;DHT22;10036;47.812;9.274;2023-05-10T12:18:40;15.70;99.90
19755;DHT22;10036;47.812;9.274;2023-05-10T12:21:09;15.70;99.90
19755;DHT22;10036;47.812;9.274;2023-05-10T12:23:37;15.70;99.90
19755;DHT22;10036;47.812;9.274;2023-05-10T12:26:04;15.60;99.90
19755;DHT22;10036;47.812;9.274;2023-05-10T12:28:32;15.40;99.90
19755;DHT22;10036;47.812;9.274;2023-05-10T12:31:01;15.40;99.90
19755;DHT22;10036;47.812;9.274;2023-05-10T12:33:35;15.60;99.90
19755;DHT22;10036;47.812;9.274;2023-05-10T12:36:02;15.50;99.90
19755;DHT22;10036;47.812;9.274;2023-05-10T12:38:33;15.60;99.90
19755;DHT22;10036;47.812;9.274;2023-05-10T12:41:02;15.70;99.90
19755;DHT22;10036;47.812;9.274;2023-05-10T12:43:30;15.60;99.90
19755;DHT22;10036;47.812;9.274;2023-05-10T12:45:57;15.60;99.90
19755;DHT22;10036;47.812;9.274;2023-05-10T12:48:25;15.70;99.90
19755;DHT22;10036;47.812;9.274;2023-05-10T12:50:54;15.70;99.90
19755;DHT22;10036;47.812;9.274;2023-05-10T12:53:21;15.40;99.90
19755;DHT22;10036;47.812;9.274;2023-05-10T12:55:48;15.50;99.90
19755;DHT22;10036;47.812;9.274;2023-05-10T12:58:14;15.60;99.90
19755;DHT22;10036;47.812;9.274;2023-05-10T13:00:41;15.70;99.90
19755;DHT22;10036;47.812;9.274;2023-05-10T13:03:09;15.70;99.90
19755;DHT22;10036;47.812;9.274;2023-05-10T13:05:38;15.70;99.90
19755;DHT22;10036;47.812;9.274;2023-05-10T13:08:05;15.80;99.90
19755;DHT22;10036;47.812;9.274;2023-05-10T13:10:32;16.00;99.90
19755;DHT22;10036;47.812;9.274;2023-05-10T13:12:59;16.00;99.90
19755;DHT22;10036;47.812;9.274;2023-05-10T13:15:26;16.10;99.90
19755;DHT22;10036;47.812;9.274;2023-05-10T13:17:53;16.10;99.90
19755;DHT22;10036;47.812;9.274;2023-05-10T13:20:20;15.90;99.90
19755;DHT22;10036;47.812;9.274;2023-05-10T13:22:49;16.00;99.90
19755;DHT22;10036;47.812;9.274;2023-05-10T13:25:16;16.00;99.90
19755;DHT22;10036;47.812;9.274;2023-05-10T13:27:43;16.00;99.90
19755;DHT22;10036;47.812;9.274;2023-05-10T13:30:10;16.00;99.90
19755;DHT22;10036;47.812;9.274;2023-05-10T13:32:38;16.10;99.90
19755;DHT22;10036;47.812;9.274;2023-05-10T13:35:06;16.00;99.90
19755;DHT22;10036;47.812;9.274;2023-05-10T13:37:33;16.10;99.90
19755;DHT22;10036;47.812;9.274;2023-05-10T13:40:05;16.10;99.90
19755;DHT22;10036;47.812;9.274;2023-05-10T13:42:32;16.20;99.90
19755;DHT22;10036;47.812;9.274;2023-05-10T13:44:59;16.40;99.90
19755;DHT22;10036;47.812;9.274;2023-05-10T13:47:27;16.30;99.90
19755;DHT22;10036;47.812;9.274;2023-05-10T13:49:54;16.40;99.90
19755;DHT22;10036;47.812;9.274;2023-05-10T13:52:22;16.40;99.90
19755;DHT22;10036;47.812;9.274;2023-05-10T13:54:49;16.40;99.90
19755;DHT22;10036;47.812;9.274;2023-05-10T13:57:18;16.50;99.90
19755;DHT22;10036;47.812;9.274;2023-05-10T13:59:46;16.40;99.90
19755;DHT22;10036;47.812;9.274;2023-05-10T14:02:13;16.30;99.90
19755;DHT22;10036;47.812;9.274;2023-05-10T14:04:40;16.30;99.90
19755;DHT22;10036;47.812;9.274;2023-05-10T14:07:07;16.00;99.90
19755;DHT22;10036;47.812;9.274;2023-05-10T14:09:34;16.00;99.90
19755;DHT22;10036;47.812;9.274;2023-05-10T14:12:01;16.00;99.90
19755;DHT22;10036;47.812;9.274;2023-05-10T14:14:29;16.00;99.90
19755;DHT22;10036;47.812;9.274;2023-05-10T14:16:56;16.20;99.90
19755;DHT22;10036;47.812;9.274;2023-05-10T14:19:24;16.20;99.90
19755;DHT22;10036;47.812;9.274;2023-05-10T14:21:52;16.30;99.90
19755;DHT22;10036;47.812;9.274;2023-05-10T14:24:19;16.30;99.90
19755;DHT22;10036;47.812;9.274;2023-05-10T14:26:46;16.30;99.90
19755;DHT22;10036;47.812;9.274;2023-05-10T14:29:13;16.20;99.90
19755;DHT22;10036;47.812;9.274;2023-05-10T14:31:42;16.20;99.90
19755;DHT22;10036;47.812;9.274;2023-05-10T14:34:08;16.10;99.90
19755;DHT22;10036;47.812;9.274;2023-05-10T14:36:35;16.10;99.90
19755;DHT22;10036;47.812;9.274;2023-05-10T14:39:02;16.10;99.90
19755;DHT22;10036;47.812;9.274;2023-05-10T14:41:30;16.00;99.90
19755;DHT22;10036;47.812;9.274;2023-05-10T14:43:57;16.00;99.90
19755;DHT22;10036;47.812;9.274;2023-05-10T14:46:25;16.00;99.90
19755;DHT22;10036;47.812;9.274;2023-05-10T14:48:54;16.20;99.90
19755;DHT22;10036;47.812;9.274;2023-05-10T14:51:21;16.10;99.90
19755;DHT22;10036;47.812;9.274;2023-05-10T14:53:53;15.90;99.90
19755;DHT22;10036;47.812;9.274;2023-05-10T14:56:19;15.80;99.90
19755;DHT22;10036;47.812;9.274;2023-05-10T14:58:47;15.80;99.90
19755;DHT22;10036;47.812;9.274;2023-05-10T15:01:15;15.60;99.90
19755;DHT22;10036;47.812;9.274;2023-05-10T15:03:42;15.70;99.90
19755;DHT22;10036;47.812;9.274;2023-05-10T15:06:10;15.60;99.90
19755;DHT22;10036;47.812;9.274;2023-05-10T15:08:37;15.60;99.90
19755;DHT22;10036;47.812;9.274;2023-05-10T15:11:04;15.70;99.90
19755;DHT22;10036;47.812;9.274;2023-05-10T15:13:31;15.70;99.90
19755;DHT22;10036;47.812;9.274;2023-05-10T15:15:58;15.80;99.90
19755;DHT22;10036;47.812;9.274;2023-05-10T15:18:25;15.80;99.90
19755;DHT22;10036;47.812;9.274;2023-05-10T15:20:52;15.80;99.90
19755;DHT22;10036;47.812;9.274;2023-05-10T15:23:22;15.90;99.90
19755;DHT22;10036;47.812;9.274;2023-05-10T15:25:48;15.80;99.90
19755;DHT22;10036;47.812;9.274;2023-05-10T15:28:17;15.70;99.90
19755;DHT22;10036;47.812;9.274;2023-05-10T15:30:44;15.80;99.90
19755;DHT22;10036;47.812;9.274;2023-05-10T15:33:12;15.70;99.90
19755;DHT22;10036;47.812;9.274;2023-05-10T15:35:40;15.90;99.90
19755;DHT22;10036;47.812;9.274;2023-05-10T15:38:08;15.80;99.90
19755;DHT22;10036;47.812;9.274;2023-05-10T15:40:36;15.60;99.90